sensor_id;sensor_type;location;lat;lon;timestamp;temperature;humidity
6078;DHT22;3067;49.470;10.394;2023-10-19T00:00:14;9.50;74.60
6078;DHT22;3067;49.470;10.394;2023-10-19T00:02:52;9.50;74.50
6078;DHT22;3067;49.470;10.394;2023-10-19T00:05:18;9.60;74.40
6078;DHT22;3067;49.470;10.394;2023-10-19T00:07:45;9.60;74.10
6078;DHT22;3067;49.470;10.394;2023-10-19T00:10:12;9.60;74.10
6078;DHT22;3067;49.470;10.394;2023-10-19T00:12:42;9.60;74.00
6078;DHT22;3067;49.470;10.394;2023-10-19T00:15:10;9.60;74.10
6078;DHT22;3067;49.470;10.394;2023-10-19T00:17:39;9.70;74.00
6078;DHT22;3067;49.470;10.394;2023-10-19T00:20:11;9.80;73.90
6078;DHT22;3067;49.470;10.394;2023-10-19T00:22:52;9.80;73.90
6078;DHT22;3067;49.470;10.394;2023-10-19T00:25:19;9.80;73.60
6078;DHT22;3067;49.470;10.394;2023-10-19T00:27:49;9.90;73.50
6078;DHT22;3067;49.470;10.394;2023-10-19T00:30:16;10.00;73.50
6078;DHT22;3067;49.470;10.394;2023-10-19T00:32:47;9.80;73.40
6078;DHT22;3067;49.470;10.394;2023-10-19T00:35:15;9.80;73.90
6078;DHT22;3067;49.470;10.394;2023-10-19T00:37:55;9.80;74.20
6078;DHT22;3067;49.470;10.394;2023-10-19T00:40:38;9.80;74.30
6078;DHT22;3067;49.470;10.394;2023-10-19T00:43:06;9.70;74.00
6078;DHT22;3067;49.470;10.394;2023-10-19T00:45:35;9.70;74.00
6078;DHT22;3067;49.470;10.394;2023-10-19T00:48:07;9.70;74.10
6078;DHT22;3067;49.470;10.394;2023-10-19T00:50:38;9.70;74.40
6078;DHT22;3067;49.470;10.394;2023-10-19T00:53:06;9.70;74.30
6078;DHT22;3067;49.470;10.394;2023-10-19T00:55:34;9.80;74.20
6078;DHT22;3067;49.470;10.394;2023-10-19T00:58:03;9.80;74.30
6078;DHT22;3067;49.470;10.394;2023-10-19T01:00:36;9.80;74.10
6078;DHT22;3067;49.470;10.394;2023-10-19T01:03:10;9.80;74.10
6078;DHT22;3067;49.470;10.394;2023-10-19T01:05:44;9.80;74.20
6078;DHT22;3067;49.470;10.394;2023-10-19T01:08:15;9.80;74.10
6078;DHT22;3067;49.470;10.394;2023-10-19T01:10:50;9.70;74.40
6078;DHT22;3067;49.470;10.394;2023-10-19T01:13:19;9.80;74.40
6078;DHT22;3067;49.470;10.394;2023-10-19T01:15:53;9.80;74.30
6078;DHT22;3067;49.470;10.394;2023-10-19T01:18:21;9.90;74.00
6078;DHT22;3067;49.470;10.394;2023-10-19T01:20:56;9.90;73.60
6078;DHT22;3067;49.470;10.394;2023-10-19T01:23:24;9.90;73.50
6078;DHT22;3067;49.470;10.394;2023-10-19T01:25:55;10.00;73.60
6078;DHT22;3067;49.470;10.394;2023-10-19T01:28:29;10.00;73.00
6078;DHT22;3067;49.470;10.394;2023-10-19T01:31:08;9.90;73.00
6078;DHT22;3067;49.470;10.394;2023-10-19T01:33:40;10.00;72.90
6078;DHT22;3067;49.470;10.394;2023-10-19T01:36:08;10.00;73.00
6078;DHT22;3067;49.470;10.394;2023-10-19T01:38:39;10.00;72.90
6078;DHT22;3067;49.470;10.394;2023-10-19T01:41:06;10.00;72.90
6078;DHT22;3067;49.470;10.394;2023-10-19T01:43:40;10.00;73.10
6078;DHT22;3067;49.470;10.394;2023-10-19T01:46:06;10.00;73.30
6078;DHT22;3067;49.470;10.394;2023-10-19T01:48:38;10.00;73.30
6078;DHT22;3067;49.470;10.394;2023-10-19T01:51:06;10.10;73.20
6078;DHT22;3067;49.470;10.394;2023-10-19T01:53:37;10.10;73.20
6078;DHT22;3067;49.470;10.394;2023-10-19T01:56:07;10.10;73.10
6078;DHT22;3067;49.470;10.394;2023-10-19T01:58:36;10.10;73.00
6078;DHT22;3067;49.470;10.394;2023-10-19T02:01:03;10.20;73.00
6078;DHT22;3067;49.470;10.394;2023-10-19T02:03:32;10.20;73.00
6078;DHT22;3067;49.470;10.394;2023-10-19T02:05:59;10.20;73.10
6078;DHT22;3067;49.470;10.394;2023-10-19T02:08:31;10.20;73.20
6078;DHT22;3067;49.470;10.394;2023-10-19T02:10:57;10.30;73.20
6078;DHT22;3067;49.470;10.394;2023-10-19T02:13:29;10.30;73.00
6078;DHT22;3067;49.470;10.394;2023-10-19T02:15:55;10.30;72.80
6078;DHT22;3067;49.470;10.394;2023-10-19T02:18:22;10.40;72.70
6078;DHT22;3067;49.470;10.394;2023-10-19T02:20:48;10.40;72.70
6078;DHT22;3067;49.470;10.394;2023-10-19T02:23:18;10.40;72.60
6078;DHT22;3067;49.470;10.394;2023-10-19T02:25:44;10.40;72.30
6078;DHT22;3067;49.470;10.394;2023-10-19T02:28:12;10.40;72.40
6078;DHT22;3067;49.470;10.394;2023-10-19T02:30:39;10.50;72.50
6078;DHT22;3067;49.470;10.394;2023-10-19T02:33:07;10.40;72.40
6078;DHT22;3067;49.470;10.394;2023-10-19T02:35:33;10.50;72.20
6078;DHT22;3067;49.470;10.394;2023-10-19T02:38:01;10.50;72.30
6078;DHT22;3067;49.470;10.394;2023-10-19T02:40:27;10.50;72.40
6078;DHT22;3067;49.470;10.394;2023-10-19T02:42:59;10.40;72.30
6078;DHT22;3067;49.470;10.394;2023-10-19T02:45:28;10.50;72.50
6078;DHT22;3067;49.470;10.394;2023-10-19T02:47:59;10.50;72.50
6078;DHT22;3067;49.470;10.394;2023-10-19T02:50:26;10.50;72.60
6078;DHT22;3067;49.470;10.394;2023-10-19T02:52:52;10.50;72.70
6078;DHT22;3067;49.470;10.394;2023-10-19T02:55:19;10.50;72.90
6078;DHT22;3067;49.470;10.394;2023-10-19T02:57:48;10.50;72.90
6078;DHT22;3067;49.470;10.394;2023-10-19T03:00:16;10.50;72.90
6078;DHT22;3067;49.470;10.394;2023-10-19T03:02:46;10.40;72.90
6078;DHT22;3067;49.470;10.394;2023-10-19T03:05:14;10.40;73.10
6078;DHT22;3067;49.470;10.394;2023-10-19T03:07:41;10.40;73.20
6078;DHT22;3067;49.470;10.394;2023-10-19T03:10:10;10.40;73.30
6078;DHT22;3067;49.470;10.394;2023-10-19T03:12:49;10.40;73.50
6078;DHT22;3067;49.470;10.394;2023-10-19T03:15:16;10.40;73.90
6078;DHT22;3067;49.470;10.394;2023-10-19T03:17:46;10.40;74.30
6078;DHT22;3067;49.470;10.394;2023-10-19T03:20:16;10.30;74.90
6078;DHT22;3067;49.470;10.394;2023-10-19T03:22:43;10.30;75.10
6078;DHT22;3067;49.470;10.394;2023-10-19T03:25:13;10.30;75.50
6078;DHT22;3067;49.470;10.394;2023-10-19T03:27:57;10.30;76.00
6078;DHT22;3067;49.470;10.394;2023-10-19T03:30:24;10.30;76.30
6078;DHT22;3067;49.470;10.394;2023-10-19T03:32:52;10.30;76.50
6078;DHT22;3067;49.470;10.394;2023-10-19T03:35:21;10.30;76.60
6078;DHT22;3067;49.470;10.394;2023-10-19T03:37:48;10.30;77.20
6078;DHT22;3067;49.470;10.394;2023-10-19T03:40:17;10.30;77.20
6078;DHT22;3067;49.470;10.394;2023-10-19T03:42:55;10.40;77.80
6078;DHT22;3067;49.470;10.394;2023-10-19T03:45:23;10.40;77.70
6078;DHT22;3067;49.470;10.394;2023-10-19T03:47:52;10.50;77.60
6078;DHT22;3067;49.470;10.394;2023-10-19T03:50:23;10.50;77.30
6078;DHT22;3067;49.470;10.394;2023-10-19T03:52:51;10.50;77.20
6078;DHT22;3067;49.470;10.394;2023-10-19T03:55:19;10.60;76.90
6078;DHT22;3067;49.470;10.394;2023-10-19T03:57:48;10.60;76.50
6078;DHT22;3067;49.470;10.394;2023-10-19T04:00:20;10.60;76.20
6078;DHT22;3067;49.470;10.394;2023-10-19T04:02:50;10.60;76.20
6078;DHT22;3067;49.470;10.394;2023-10-19T04:05:20;10.70;76.70
6078;DHT22;3067;49.470;10.394;2023-10-19T04:07:49;10.70;76.90
6078;DHT22;3067;49.470;10.394;2023-10-19T04:10:20;10.70;78.10
6078;DHT22;3067;49.470;10.394;2023-10-19T04:13:04;10.70;78.40
6078;DHT22;3067;49.470;10.394;2023-10-19T04:15:35;10.80;79.00
6078;DHT22;3067;49.470;10.394;2023-10-19T04:18:03;10.80;79.40
6078;DHT22;3067;49.470;10.394;2023-10-19T04:20:36;10.90;79.80
6078;DHT22;3067;49.470;10.394;2023-10-19T04:23:21;10.90;79.70
6078;DHT22;3067;49.470;10.394;2023-10-19T04:25:53;11.00;79.70
6078;DHT22;3067;49.470;10.394;2023-10-19T04:28:22;11.10;80.00
6078;DHT22;3067;49.470;10.394;2023-10-19T04:30:56;11.10;80.10
6078;DHT22;3067;49.470;10.394;2023-10-19T04:33:28;11.20;80.00
6078;DHT22;3067;49.470;10.394;2023-10-19T04:35:55;11.30;79.90
6078;DHT22;3067;49.470;10.394;2023-10-19T04:38:27;11.40;79.80
6078;DHT22;3067;49.470;10.394;2023-10-19T04:41:04;11.40;79.50
6078;DHT22;3067;49.470;10.394;2023-10-19T04:43:33;11.40;79.10
6078;DHT22;3067;49.470;10.394;2023-10-19T04:46:04;11.30;79.00
6078;DHT22;3067;49.470;10.394;2023-10-19T04:48:34;11.30;80.00
6078;DHT22;3067;49.470;10.394;2023-10-19T04:51:01;11.30;79.80
6078;DHT22;3067;49.470;10.394;2023-10-19T04:53:31;11.40;79.40
6078;DHT22;3067;49.470;10.394;2023-10-19T04:55:59;11.50;79.20
6078;DHT22;3067;49.470;10.394;2023-10-19T04:58:26;11.50;79.20
6078;DHT22;3067;49.470;10.394;2023-10-19T05:00:54;11.50;79.20
6078;DHT22;3067;49.470;10.394;2023-10-19T05:03:21;11.60;78.90
6078;DHT22;3067;49.470;10.394;2023-10-19T05:05:49;11.70;78.90
6078;DHT22;3067;49.470;10.394;2023-10-19T05:08:17;11.70;78.80
6078;DHT22;3067;49.470;10.394;2023-10-19T05:10:46;11.80;78.60
6078;DHT22;3067;49.470;10.394;2023-10-19T05:13:13;11.90;78.40
6078;DHT22;3067;49.470;10.394;2023-10-19T05:15:41;11.90;78.00
6078;DHT22;3067;49.470;10.394;2023-10-19T05:18:08;12.00;77.90
6078;DHT22;3067;49.470;10.394;2023-10-19T05:20:36;12.00;77.80
6078;DHT22;3067;49.470;10.394;2023-10-19T05:23:06;12.00;77.80
6078;DHT22;3067;49.470;10.394;2023-10-19T05:25:34;12.00;78.10
6078;DHT22;3067;49.470;10.394;2023-10-19T05:28:04;12.00;78.00
6078;DHT22;3067;49.470;10.394;2023-10-19T05:30:31;12.00;77.80
6078;DHT22;3067;49.470;10.394;2023-10-19T05:32:58;12.00;77.60
6078;DHT22;3067;49.470;10.394;2023-10-19T05:35:27;12.10;77.20
6078;DHT22;3067;49.470;10.394;2023-10-19T05:37:55;12.10;77.10
6078;DHT22;3067;49.470;10.394;2023-10-19T05:40:22;12.10;77.20
6078;DHT22;3067;49.470;10.394;2023-10-19T05:42:55;12.10;77.40
6078;DHT22;3067;49.470;10.394;2023-10-19T05:45:23;12.20;77.50
6078;DHT22;3067;49.470;10.394;2023-10-19T05:47:52;12.20;77.50
6078;DHT22;3067;49.470;10.394;2023-10-19T05:50:19;12.20;77.40
6078;DHT22;3067;49.470;10.394;2023-10-19T05:52:46;12.30;77.20
6078;DHT22;3067;49.470;10.394;2023-10-19T05:55:14;12.30;77.00
6078;DHT22;3067;49.470;10.394;2023-10-19T05:57:41;12.30;76.90
6078;DHT22;3067;49.470;10.394;2023-10-19T06:00:11;12.20;76.90
6078;DHT22;3067;49.470;10.394;2023-10-19T06:02:45;12.20;77.00
6078;DHT22;3067;49.470;10.394;2023-10-19T06:05:13;12.20;77.00
6078;DHT22;3067;49.470;10.394;2023-10-19T06:07:42;12.10;77.10
6078;DHT22;3067;49.470;10.394;2023-10-19T06:10:11;12.00;77.30
6078;DHT22;3067;49.470;10.394;2023-10-19T06:12:41;12.00;77.40
6078;DHT22;3067;49.470;10.394;2023-10-19T06:15:09;12.10;77.40
6078;DHT22;3067;49.470;10.394;2023-10-19T06:17:38;12.10;77.40
6078;DHT22;3067;49.470;10.394;2023-10-19T06:20:09;12.10;77.40
6078;DHT22;3067;49.470;10.394;2023-10-19T06:22:46;12.10;77.20
6078;DHT22;3067;49.470;10.394;2023-10-19T06:25:16;12.10;77.20
6078;DHT22;3067;49.470;10.394;2023-10-19T06:27:45;12.10;77.10
6078;DHT22;3067;49.470;10.394;2023-10-19T06:30:12;12.10;77.00
6078;DHT22;3067;49.470;10.394;2023-10-19T06:32:45;12.10;76.80
6078;DHT22;3067;49.470;10.394;2023-10-19T06:35:14;12.20;76.90
6078;DHT22;3067;49.470;10.394;2023-10-19T06:37:41;12.20;76.80
6078;DHT22;3067;49.470;10.394;2023-10-19T06:40:09;12.20;76.10
6078;DHT22;3067;49.470;10.394;2023-10-19T06:42:38;12.20;75.90
6078;DHT22;3067;49.470;10.394;2023-10-19T06:45:06;12.20;75.50
6078;DHT22;3067;49.470;10.394;2023-10-19T06:47:35;12.10;75.20
6078;DHT22;3067;49.470;10.394;2023-10-19T06:50:05;11.90;75.40
6078;DHT22;3067;49.470;10.394;2023-10-19T06:52:35;11.90;75.50
6078;DHT22;3067;49.470;10.394;2023-10-19T06:55:03;12.00;75.40
6078;DHT22;3067;49.470;10.394;2023-10-19T06:57:31;12.00;75.40
6078;DHT22;3067;49.470;10.394;2023-10-19T06:59:58;12.10;75.40
6078;DHT22;3067;49.470;10.394;2023-10-19T07:02:26;12.10;75.40
6078;DHT22;3067;49.470;10.394;2023-10-19T07:04:54;12.20;75.20
6078;DHT22;3067;49.470;10.394;2023-10-19T07:07:21;12.20;74.80
6078;DHT22;3067;49.470;10.394;2023-10-19T07:09:49;12.20;75.00
6078;DHT22;3067;49.470;10.394;2023-10-19T07:12:18;12.20;74.70
6078;DHT22;3067;49.470;10.394;2023-10-19T07:14:45;12.30;74.30
6078;DHT22;3067;49.470;10.394;2023-10-19T07:17:12;12.30;73.80
6078;DHT22;3067;49.470;10.394;2023-10-19T07:19:42;12.20;73.60
6078;DHT22;3067;49.470;10.394;2023-10-19T07:22:10;12.20;73.70
6078;DHT22;3067;49.470;10.394;2023-10-19T07:24:38;12.20;74.10
6078;DHT22;3067;49.470;10.394;2023-10-19T07:27:07;12.20;74.60
6078;DHT22;3067;49.470;10.394;2023-10-19T07:29:43;12.30;74.50
6078;DHT22;3067;49.470;10.394;2023-10-19T07:32:10;12.40;74.50
6078;DHT22;3067;49.470;10.394;2023-10-19T07:34:39;12.50;74.50
6078;DHT22;3067;49.470;10.394;2023-10-19T07:37:06;12.50;73.90
6078;DHT22;3067;49.470;10.394;2023-10-19T07:39:37;12.60;73.80
6078;DHT22;3067;49.470;10.394;2023-10-19T07:42:09;12.70;73.20
6078;DHT22;3067;49.470;10.394;2023-10-19T07:44:36;12.80;72.70
6078;DHT22;3067;49.470;10.394;2023-10-19T07:47:04;12.90;72.80
6078;DHT22;3067;49.470;10.394;2023-10-19T07:49:32;13.00;72.50
6078;DHT22;3067;49.470;10.394;2023-10-19T07:51:59;13.10;72.30
6078;DHT22;3067;49.470;10.394;2023-10-19T07:54:26;13.10;71.30
6078;DHT22;3067;49.470;10.394;2023-10-19T07:56:54;13.10;71.30
6078;DHT22;3067;49.470;10.394;2023-10-19T07:59:24;13.10;71.30
6078;DHT22;3067;49.470;10.394;2023-10-19T08:01:51;13.10;71.10
6078;DHT22;3067;49.470;10.394;2023-10-19T08:04:18;13.10;71.20
6078;DHT22;3067;49.470;10.394;2023-10-19T08:06:45;13.10;71.30
6078;DHT22;3067;49.470;10.394;2023-10-19T08:09:13;13.20;71.40
6078;DHT22;3067;49.470;10.394;2023-10-19T08:11:48;13.30;71.80
6078;DHT22;3067;49.470;10.394;2023-10-19T08:14:15;13.20;71.10
6078;DHT22;3067;49.470;10.394;2023-10-19T08:16:43;13.30;72.10
6078;DHT22;3067;49.470;10.394;2023-10-19T08:19:10;13.30;71.50
6078;DHT22;3067;49.470;10.394;2023-10-19T08:21:38;13.30;71.50
6078;DHT22;3067;49.470;10.394;2023-10-19T08:24:05;13.20;71.70
6078;DHT22;3067;49.470;10.394;2023-10-19T08:26:32;13.10;71.60
6078;DHT22;3067;49.470;10.394;2023-10-19T08:29:01;13.00;72.10
6078;DHT22;3067;49.470;10.394;2023-10-19T08:31:37;13.00;72.10
6078;DHT22;3067;49.470;10.394;2023-10-19T08:34:07;13.00;72.30
6078;DHT22;3067;49.470;10.394;2023-10-19T08:36:36;13.00;72.60
6078;DHT22;3067;49.470;10.394;2023-10-19T08:39:04;13.10;72.90
6078;DHT22;3067;49.470;10.394;2023-10-19T08:41:32;13.30;72.90
6078;DHT22;3067;49.470;10.394;2023-10-19T08:44:00;13.40;72.80
6078;DHT22;3067;49.470;10.394;2023-10-19T08:46:28;13.50;72.50
6078;DHT22;3067;49.470;10.394;2023-10-19T08:48:55;13.70;72.20
6078;DHT22;3067;49.470;10.394;2023-10-19T08:51:26;13.90;72.10
6078;DHT22;3067;49.470;10.394;2023-10-19T08:53:54;13.90;70.80
6078;DHT22;3067;49.470;10.394;2023-10-19T08:56:22;13.90;70.90
6078;DHT22;3067;49.470;10.394;2023-10-19T08:58:51;14.00;70.50
6078;DHT22;3067;49.470;10.394;2023-10-19T09:01:19;14.10;70.40
6078;DHT22;3067;49.470;10.394;2023-10-19T09:03:50;14.10;70.40
6078;DHT22;3067;49.470;10.394;2023-10-19T09:06:17;14.10;70.30
6078;DHT22;3067;49.470;10.394;2023-10-19T09:08:47;14.20;70.50
6078;DHT22;3067;49.470;10.394;2023-10-19T09:11:15;14.20;70.00
6078;DHT22;3067;49.470;10.394;2023-10-19T09:13:45;14.10;70.40
6078;DHT22;3067;49.470;10.394;2023-10-19T09:16:15;13.90;70.50
6078;DHT22;3067;49.470;10.394;2023-10-19T09:18:42;13.60;71.30
6078;DHT22;3067;49.470;10.394;2023-10-19T09:21:10;13.70;72.60
6078;DHT22;3067;49.470;10.394;2023-10-19T09:23:38;13.70;73.00
6078;DHT22;3067;49.470;10.394;2023-10-19T09:26:07;13.90;72.90
6078;DHT22;3067;49.470;10.394;2023-10-19T09:28:35;14.00;72.60
6078;DHT22;3067;49.470;10.394;2023-10-19T09:31:02;14.10;72.50
6078;DHT22;3067;49.470;10.394;2023-10-19T09:33:32;14.20;72.70
6078;DHT22;3067;49.470;10.394;2023-10-19T09:36:01;14.30;72.30
6078;DHT22;3067;49.470;10.394;2023-10-19T09:38:30;14.50;72.00
6078;DHT22;3067;49.470;10.394;2023-10-19T09:40:58;14.70;70.90
6078;DHT22;3067;49.470;10.394;2023-10-19T09:43:34;14.90;70.20
6078;DHT22;3067;49.470;10.394;2023-10-19T09:46:06;15.00;69.90
6078;DHT22;3067;49.470;10.394;2023-10-19T09:48:39;15.20;69.20
6078;DHT22;3067;49.470;10.394;2023-10-19T09:51:08;15.30;69.00
6078;DHT22;3067;49.470;10.394;2023-10-19T09:53:36;15.40;69.70
6078;DHT22;3067;49.470;10.394;2023-10-19T09:56:06;15.60;68.50
6078;DHT22;3067;49.470;10.394;2023-10-19T09:58:41;15.70;69.20
6078;DHT22;3067;49.470;10.394;2023-10-19T10:01:11;15.80;67.10
6078;DHT22;3067;49.470;10.394;2023-10-19T10:03:46;16.00;67.60
6078;DHT22;3067;49.470;10.394;2023-10-19T10:06:14;16.10;67.60
6078;DHT22;3067;49.470;10.394;2023-10-19T10:08:42;16.20;67.50
6078;DHT22;3067;49.470;10.394;2023-10-19T10:11:20;16.30;67.90
6078;DHT22;3067;49.470;10.394;2023-10-19T10:13:50;16.40;67.50
6078;DHT22;3067;49.470;10.394;2023-10-19T10:16:23;16.40;65.90
6078;DHT22;3067;49.470;10.394;2023-10-19T10:18:54;16.50;66.20
6078;DHT22;3067;49.470;10.394;2023-10-19T10:21:21;16.50;65.60
6078;DHT22;3067;49.470;10.394;2023-10-19T10:23:51;16.50;65.40
6078;DHT22;3067;49.470;10.394;2023-10-19T10:26:21;16.50;65.20
6078;DHT22;3067;49.470;10.394;2023-10-19T10:29:21;16.60;65.80
6078;DHT22;3067;49.470;10.394;2023-10-19T10:31:50;16.70;66.20
6078;DHT22;3067;49.470;10.394;2023-10-19T10:34:42;16.80;65.60
6078;DHT22;3067;49.470;10.394;2023-10-19T10:37:10;16.90;65.80
6078;DHT22;3067;49.470;10.394;2023-10-19T10:39:39;17.00;66.20
6078;DHT22;3067;49.470;10.394;2023-10-19T10:42:08;17.10;65.70
6078;DHT22;3067;49.470;10.394;2023-10-19T10:44:38;17.10;65.60
6078;DHT22;3067;49.470;10.394;2023-10-19T10:47:07;17.10;65.50
6078;DHT22;3067;49.470;10.394;2023-10-19T10:49:45;17.20;65.00
6078;DHT22;3067;49.470;10.394;2023-10-19T10:52:23;17.10;65.60
6078;DHT22;3067;49.470;10.394;2023-10-19T10:54:51;17.10;65.20
6078;DHT22;3067;49.470;10.394;2023-10-19T10:57:19;17.20;64.40
6078;DHT22;3067;49.470;10.394;2023-10-19T11:00:00;17.20;65.00
6078;DHT22;3067;49.470;10.394;2023-10-19T11:02:30;17.30;65.10
6078;DHT22;3067;49.470;10.394;2023-10-19T11:04:58;17.40;65.20
6078;DHT22;3067;49.470;10.394;2023-10-19T11:07:25;17.60;64.00
6078;DHT22;3067;49.470;10.394;2023-10-19T11:09:52;17.60;64.20
6078;DHT22;3067;49.470;10.394;2023-10-19T11:12:20;17.70;63.50
6078;DHT22;3067;49.470;10.394;2023-10-19T11:14:55;17.80;63.50
6078;DHT22;3067;49.470;10.394;2023-10-19T11:17:23;18.00;62.80
6078;DHT22;3067;49.470;10.394;2023-10-19T11:19:54;17.80;62.90
6078;DHT22;3067;49.470;10.394;2023-10-19T11:22:23;17.80;63.30
6078;DHT22;3067;49.470;10.394;2023-10-19T11:24:52;18.00;63.00
6078;DHT22;3067;49.470;10.394;2023-10-19T11:27:24;18.10;63.00
6078;DHT22;3067;49.470;10.394;2023-10-19T11:29:58;18.10;62.60
6078;DHT22;3067;49.470;10.394;2023-10-19T11:32:36;18.10;62.60
6078;DHT22;3067;49.470;10.394;2023-10-19T11:35:04;18.10;62.80
6078;DHT22;3067;49.470;10.394;2023-10-19T11:37:48;18.20;63.00
6078;DHT22;3067;49.470;10.394;2023-10-19T11:40:15;18.40;63.00
6078;DHT22;3067;49.470;10.394;2023-10-19T11:42:43;18.50;62.30
6078;DHT22;3067;49.470;10.394;2023-10-19T11:45:11;18.60;60.70
6078;DHT22;3067;49.470;10.394;2023-10-19T11:47:38;18.70;61.10
6078;DHT22;3067;49.470;10.394;2023-10-19T11:50:07;18.70;60.70
6078;DHT22;3067;49.470;10.394;2023-10-19T11:52:34;18.70;60.30
6078;DHT22;3067;49.470;10.394;2023-10-19T11:55:01;18.70;60.10
6078;DHT22;3067;49.470;10.394;2023-10-19T11:57:28;18.70;59.80
6078;DHT22;3067;49.470;10.394;2023-10-19T11:59:55;18.80;59.90
6078;DHT22;3067;49.470;10.394;2023-10-19T12:02:24;18.90;59.70
6078;DHT22;3067;49.470;10.394;2023-10-19T12:04:52;18.90;59.70
6078;DHT22;3067;49.470;10.394;2023-10-19T12:07:19;19.00;60.20
6078;DHT22;3067;49.470;10.394;2023-10-19T12:09:46;19.00;60.10
6078;DHT22;3067;49.470;10.394;2023-10-19T12:12:14;18.90;59.20
6078;DHT22;3067;49.470;10.394;2023-10-19T12:14:41;18.80;59.80
6078;DHT22;3067;49.470;10.394;2023-10-19T12:17:09;18.60;60.10
6078;DHT22;3067;49.470;10.394;2023-10-19T12:19:38;18.60;60.30
6078;DHT22;3067;49.470;10.394;2023-10-19T12:22:06;18.60;60.40
6078;DHT22;3067;49.470;10.394;2023-10-19T12:24:34;18.60;60.50
6078;DHT22;3067;49.470;10.394;2023-10-19T12:27:01;18.60;61.10
6078;DHT22;3067;49.470;10.394;2023-10-19T12:29:28;18.50;60.90
6078;DHT22;3067;49.470;10.394;2023-10-19T12:31:57;18.40;60.70
6078;DHT22;3067;49.470;10.394;2023-10-19T12:34:24;18.30;60.80
6078;DHT22;3067;49.470;10.394;2023-10-19T12:36:56;18.40;61.10
6078;DHT22;3067;49.470;10.394;2023-10-19T12:39:24;18.40;61.20
6078;DHT22;3067;49.470;10.394;2023-10-19T12:42:09;18.30;61.40
6078;DHT22;3067;49.470;10.394;2023-10-19T12:44:36;18.30;61.60
6078;DHT22;3067;49.470;10.394;2023-10-19T12:47:07;18.20;61.60
6078;DHT22;3067;49.470;10.394;2023-10-19T12:49:36;18.10;62.70
6078;DHT22;3067;49.470;10.394;2023-10-19T12:52:05;18.10;62.60
6078;DHT22;3067;49.470;10.394;2023-10-19T12:54:33;18.10;63.00
6078;DHT22;3067;49.470;10.394;2023-10-19T12:57:00;18.10;63.40
6078;DHT22;3067;49.470;10.394;2023-10-19T12:59:29;18.10;63.50
6078;DHT22;3067;49.470;10.394;2023-10-19T13:01:57;18.10;63.70
6078;DHT22;3067;49.470;10.394;2023-10-19T13:04:24;18.10;63.70
6078;DHT22;3067;49.470;10.394;2023-10-19T13:06:55;18.00;63.70
6078;DHT22;3067;49.470;10.394;2023-10-19T13:09:24;17.80;64.70
6078;DHT22;3067;49.470;10.394;2023-10-19T13:11:57;17.70;64.70
6078;DHT22;3067;49.470;10.394;2023-10-19T13:14:24;17.70;65.00
6078;DHT22;3067;49.470;10.394;2023-10-19T13:16:52;17.60;64.60
6078;DHT22;3067;49.470;10.394;2023-10-19T13:19:20;17.50;65.00
6078;DHT22;3067;49.470;10.394;2023-10-19T13:21:50;17.40;65.50
6078;DHT22;3067;49.470;10.394;2023-10-19T13:24:18;17.30;66.40
6078;DHT22;3067;49.470;10.394;2023-10-19T13:26:48;17.20;66.40
6078;DHT22;3067;49.470;10.394;2023-10-19T13:29:15;17.20;66.40
6078;DHT22;3067;49.470;10.394;2023-10-19T13:31:43;17.20;66.80
6078;DHT22;3067;49.470;10.394;2023-10-19T13:34:15;17.20;66.90
6078;DHT22;3067;49.470;10.394;2023-10-19T13:36:42;17.20;66.70
6078;DHT22;3067;49.470;10.394;2023-10-19T13:39:10;17.20;66.60
6078;DHT22;3067;49.470;10.394;2023-10-19T13:41:42;17.20;67.10
6078;DHT22;3067;49.470;10.394;2023-10-19T13:44:10;17.30;67.20
6078;DHT22;3067;49.470;10.394;2023-10-19T13:46:38;17.30;67.00
6078;DHT22;3067;49.470;10.394;2023-10-19T13:49:05;17.20;67.00
6078;DHT22;3067;49.470;10.394;2023-10-19T13:51:32;17.20;67.40
6078;DHT22;3067;49.470;10.394;2023-10-19T13:53:59;17.20;67.50
6078;DHT22;3067;49.470;10.394;2023-10-19T13:56:27;17.10;68.00
6078;DHT22;3067;49.470;10.394;2023-10-19T13:58:54;17.00;68.30
6078;DHT22;3067;49.470;10.394;2023-10-19T14:01:22;17.00;68.30
6078;DHT22;3067;49.470;10.394;2023-10-19T14:03:52;17.00;68.50
6078;DHT22;3067;49.470;10.394;2023-10-19T14:06:20;16.90;68.70
6078;DHT22;3067;49.470;10.394;2023-10-19T14:08:50;17.00;69.00
6078;DHT22;3067;49.470;10.394;2023-10-19T14:11:17;17.00;69.00
6078;DHT22;3067;49.470;10.394;2023-10-19T14:13:44;17.00;69.10
6078;DHT22;3067;49.470;10.394;2023-10-19T14:16:11;16.90;69.30
6078;DHT22;3067;49.470;10.394;2023-10-19T14:18:40;16.90;69.50
6078;DHT22;3067;49.470;10.394;2023-10-19T14:21:13;16.80;69.60
6078;DHT22;3067;49.470;10.394;2023-10-19T14:23:40;16.50;69.70
6078;DHT22;3067;49.470;10.394;2023-10-19T14:26:09;16.50;70.00
6078;DHT22;3067;49.470;10.394;2023-10-19T14:28:36;16.50;70.50
6078;DHT22;3067;49.470;10.394;2023-10-19T14:31:04;16.50;70.70
6078;DHT22;3067;49.470;10.394;2023-10-19T14:33:33;16.50;70.40
6078;DHT22;3067;49.470;10.394;2023-10-19T14:36:03;16.40;70.20
6078;DHT22;3067;49.470;10.394;2023-10-19T14:38:30;16.40;70.30
6078;DHT22;3067;49.470;10.394;2023-10-19T14:40:57;16.40;69.90
6078;DHT22;3067;49.470;10.394;2023-10-19T14:43:24;16.40;70.40
6078;DHT22;3067;49.470;10.394;2023-10-19T14:45:55;16.20;70.60
6078;DHT22;3067;49.470;10.394;2023-10-19T14:48:22;16.10;70.50
6078;DHT22;3067;49.470;10.394;2023-10-19T14:50:49;16.20;70.70
6078;DHT22;3067;49.470;10.394;2023-10-19T14:53:18;16.20;71.00
6078;DHT22;3067;49.470;10.394;2023-10-19T14:55:45;16.20;71.20
6078;DHT22;3067;49.470;10.394;2023-10-19T14:58:12;16.10;71.20
6078;DHT22;3067;49.470;10.394;2023-10-19T15:00:39;16.00;71.40
6078;DHT22;3067;49.470;10.394;2023-10-19T15:03:10;16.00;71.50
6078;DHT22;3067;49.470;10.394;2023-10-19T15:05:37;16.00;71.10
6078;DHT22;3067;49.470;10.394;2023-10-19T15:08:06;16.00;71.00
6078;DHT22;3067;49.470;10.394;2023-10-19T15:10:40;16.00;71.20
6078;DHT22;3067;49.470;10.394;2023-10-19T15:13:08;16.00;71.50
6078;DHT22;3067;49.470;10.394;2023-10-19T15:15:35;16.00;71.60
6078;DHT22;3067;49.470;10.394;2023-10-19T15:18:03;16.10;71.80
6078;DHT22;3067;49.470;10.394;2023-10-19T15:20:30;16.10;71.80
6078;DHT22;3067;49.470;10.394;2023-10-19T15:22:59;16.10;71.70
6078;DHT22;3067;49.470;10.394;2023-10-19T15:25:26;16.10;71.80
6078;DHT22;3067;49.470;10.394;2023-10-19T15:27:54;16.00;71.20
6078;DHT22;3067;49.470;10.394;2023-10-19T15:30:22;16.00;71.50
6078;DHT22;3067;49.470;10.394;2023-10-19T15:32:51;15.90;71.50
6078;DHT22;3067;49.470;10.394;2023-10-19T15:35:20;15.80;71.50
6078;DHT22;3067;49.470;10.394;2023-10-19T15:37:50;15.80;71.70
6078;DHT22;3067;49.470;10.394;2023-10-19T15:40:20;15.80;71.80
6078;DHT22;3067;49.470;10.394;2023-10-19T15:42:47;15.80;71.90
6078;DHT22;3067;49.470;10.394;2023-10-19T15:45:16;15.80;71.90
6078;DHT22;3067;49.470;10.394;2023-10-19T15:47:45;15.80;71.90
6078;DHT22;3067;49.470;10.394;2023-10-19T15:50:12;15.80;71.90
6078;DHT22;3067;49.470;10.394;2023-10-19T15:52:40;15.90;71.90
6078;DHT22;3067;49.470;10.394;2023-10-19T15:55:08;15.90;72.00
6078;DHT22;3067;49.470;10.394;2023-10-19T15:57:36;15.80;72.40
6078;DHT22;3067;49.470;10.394;2023-10-19T16:00:04;15.80;72.50